Time;durP1;ratioP1;P1;durP2;ratioP2;P2;SDS_P1;SDS_P2;PMS_P1;PMS_P2;Temp;Humidity;BMP_temperature;BMP_pressure;BME280_temperature;BME280_humidity;BME280_pressure;Samples;Min_cycle;Max_cycle;Signal;HPM_P1;HPM_P2
2022/11/06 00:00:56;;;;;;;;;6.75;5.75;;;;;12.00;60.72;101208.84;4942788;28;45259;-61
2022/11/06 00:03:22;;;;;;;;;8.50;6.00;;;;;12.00;60.60;101197.44;4942853;28;45277;-61
2022/11/06 00:08:36;;;;;;;;;7.50;4.00;;;;;12.04;60.53;101191.22;4943022;28;45330;-61
2022/11/06 00:11:09;;;;;;;;;8.25;8.25;;;;;12.05;60.49;101189.44;4942696;28;45430;-60
2022/11/06 00:13:34;;;;;;;;;5.25;5.25;;;;;12.02;60.43;101177.19;4942707;28;45239;-61
2022/11/06 00:16:04;;;;;;;;;8.25;8.25;;;;;11.99;60.39;101177.25;4942164;28;45399;-61
2022/11/06 00:18:30;;;;;;;;;8.50;8.00;;;;;11.98;60.37;101167.59;4942770;28;45430;-61
2022/11/06 00:20:56;;;;;;;;;7.75;7.75;;;;;11.98;60.38;101163.19;4942468;28;45362;-61
2022/11/06 00:23:21;;;;;;;;;6.00;6.00;;;;;11.94;60.54;101169.38;4942865;28;45494;-61
2022/11/06 00:25:47;;;;;;;;;7.25;6.75;;;;;11.96;60.51;101179.91;4942292;28;46051;-61
2022/11/06 00:28:12;;;;;;;;;9.25;8.00;;;;;11.94;60.49;101179.91;4942683;28;45309;-61
2022/11/06 00:30:38;;;;;;;;;9.50;6.00;;;;;11.93;60.65;101191.31;4942699;28;45151;-63
2022/11/06 00:33:03;;;;;;;;;6.00;6.00;;;;;11.94;60.92;101200.97;4941024;28;45539;-60
2022/11/06 00:35:28;;;;;;;;;7.00;7.00;;;;;11.92;60.40;101191.34;4942306;28;45806;-60
2022/11/06 00:37:55;;;;;;;;;5.25;5.00;;;;;11.87;60.67;101189.66;4941165;28;45459;-60
2022/11/06 00:40:20;;;;;;;;;7.25;7.00;;;;;11.90;60.49;101183.47;4942493;28;45484;-60
2022/11/06 00:42:45;;;;;;;;;11.00;8.50;;;;;11.83;60.81;101189.69;4942355;28;45204;-60
2022/11/06 00:45:11;;;;;;;;;6.25;6.00;;;;;11.80;60.70;101185.34;4942405;28;45294;-60
2022/11/06 00:47:36;;;;;;;;;8.00;8.00;;;;;11.81;60.69;101179.19;4942036;28;45358;-61
2022/11/06 00:50:01;;;;;;;;;7.75;5.00;;;;;11.81;60.79;101186.19;4942474;28;45587;-61
2022/11/06 00:52:28;;;;;;;;;10.00;8.00;;;;;11.81;60.73;101187.09;4942254;28;45429;-60
2022/11/06 00:54:53;;;;;;;;;7.00;6.00;;;;;11.83;60.84;101187.91;4942356;28;46302;-60
2022/11/06 00:57:19;;;;;;;;;9.75;8.00;;;;;11.82;60.68;101177.41;4941723;28;45289;-60
2022/11/06 00:59:44;;;;;;;;;6.00;6.00;;;;;11.75;60.82;101158.19;4942329;28;45366;-60
2022/11/06 01:02:09;;;;;;;;;7.75;6.25;;;;;11.80;60.86;101161.66;4941797;28;48176;-62
2022/11/06 01:04:35;;;;;;;;;5.25;5.25;;;;;11.80;60.83;101153.75;4940968;28;45854;-61
2022/11/06 01:07:00;;;;;;;;;9.25;6.00;;;;;11.82;60.81;101156.34;4941663;28;52857;-61
2022/11/06 01:09:27;;;;;;;;;10.00;7.50;;;;;11.81;60.76;101150.22;4942277;28;45304;-61
2022/11/06 01:11:55;;;;;;;;;9.00;7.75;;;;;11.85;60.78;101156.34;4941827;28;45322;-60
2022/11/06 01:14:22;;;;;;;;;9.00;6.50;;;;;11.85;60.94;101161.59;4941894;28;45235;-61
2022/11/06 01:16:47;;;;;;;;;8.00;7.00;;;;;11.86;60.43;101158.03;4941224;28;45405;-61
2022/11/06 01:19:15;;;;;;;;;6.25;6.25;;;;;11.88;60.99;101143.09;4941841;28;45336;-62
2022/11/06 01:21:43;;;;;;;;;7.75;5.75;;;;;11.91;60.69;101127.28;4941927;28;45315;-62
2022/11/06 01:24:14;;;;;;;;;8.25;6.50;;;;;11.89;60.80;101131.69;4941713;28;46489;-62
2022/11/06 01:26:40;;;;;;;;;6.75;5.75;;;;;11.90;60.70;101129.91;4941541;28;45266;-62
2022/11/06 01:29:16;;;;;;;;;6.50;6.50;;;;;11.90;60.76;101135.19;4941719;28;45723;-62
2022/11/06 01:31:42;;;;;;;;;5.00;5.00;;;;;11.91;60.76;101137.81;4940235;28;45341;-61
2022/11/06 01:34:07;;;;;;;;;6.75;6.75;;;;;11.91;60.52;101134.28;4941589;28;45279;-62
2022/11/06 01:36:33;;;;;;;;;4.25;3.75;;;;;11.90;60.79;101133.44;4941518;28;45233;-62
2022/11/06 01:39:03;;;;;;;;;7.50;7.00;;;;;11.97;60.58;101134.25;4941747;28;45612;-62
2022/11/06 01:41:41;;;;;;;;;6.25;5.00;;;;;11.97;60.73;101128.97;4941612;28;45411;-61
2022/11/06 01:44:34;;;;;;;;;7.75;7.00;;;;;12.00;60.60;101140.34;4939975;28;47013;-62
2022/11/06 01:47:13;;;;;;;;;5.75;5.75;;;;;11.98;60.63;101136.00;4941038;28;45330;-62
2022/11/06 01:49:39;;;;;;;;;5.50;5.50;;;;;12.00;60.56;101134.22;4941530;28;45358;-62
2022/11/06 01:52:10;;;;;;;;;6.00;6.00;;;;;11.99;60.68;101132.47;4941216;28;45465;-61
2022/11/06 01:54:38;;;;;;;;;6.00;5.00;;;;;12.02;60.56;101128.03;4940476;28;45330;-61
2022/11/06 01:57:04;;;;;;;;;7.75;6.50;;;;;12.02;60.59;101127.16;4940780;28;45445;-61
2022/11/06 01:59:32;;;;;;;;;4.75;4.75;;;;;12.08;60.43;101131.47;4941524;28;45353;-61
2022/11/06 02:01:57;;;;;;;;;9.00;7.00;;;;;12.07;60.71;101133.22;4941008;28;45808;-61
2022/11/06 02:04:30;;;;;;;;;9.50;7.50;;;;;12.07;60.40;101117.41;4941359;28;45358;-61
2022/11/06 02:06:57;;;;;;;;;7.00;5.50;;;;;12.03;60.57;101128.91;4941032;28;45382;-61
2022/11/06 02:09:24;;;;;;;;;7.00;7.00;;;;;12.03;60.67;101119.22;4941379;28;45337;-61
2022/11/06 02:11:56;;;;;;;;;11.00;5.50;;;;;12.08;60.52;101116.53;4941124;28;45405;-61
2022/11/06 02:14:21;;;;;;;;;7.00;6.00;;;;;12.07;60.92;101114.78;4940513;28;45465;-61
2022/11/06 02:17:09;;;;;;;;;9.50;5.00;;;;;12.08;60.55;101105.13;4942886;28;45548;-62
2022/11/06 02:20:05;;;;;;;;;4.50;3.50;;;;;12.09;60.54;101094.56;4944567;28;45287;-61
2022/11/06 02:22:56;;;;;;;;;5.25;4.50;;;;;12.08;60.71;101076.16;4944067;28;45417;-62
2022/11/06 02:26:12;;;;;;;;;5.75;5.75;;;;;12.11;60.39;101069.09;4944287;28;45187;-61
2022/11/06 02:28:53;;;;;;;;;6.00;5.00;;;;;12.13;60.59;101066.41;4906817;28;46171;-61
2022/11/06 02:31:24;;;;;;;;;8.00;7.00;;;;;12.17;60.31;101057.56;4944379;28;45250;-61
2022/11/06 02:34:02;;;;;;;;;6.00;6.00;;;;;12.15;60.14;101049.69;4944103;28;45314;-61
2022/11/06 02:36:37;;;;;;;;;5.75;5.75;;;;;12.15;60.47;101044.41;4944143;28;45367;-61
2022/11/06 02:39:09;;;;;;;;;5.75;4.25;;;;;12.17;60.46;101033.84;4942794;28;45855;-62
2022/11/06 02:41:40;;;;;;;;;6.50;6.50;;;;;12.19;60.42;101034.72;4944181;28;45404;-62
2022/11/06 02:44:10;;;;;;;;;6.50;5.00;;;;;12.22;60.18;101039.06;4942666;28;45461;-61
2022/11/06 02:46:44;;;;;;;;;4.50;4.00;;;;;12.22;60.06;101036.41;4943599;28;47017;-61
2022/11/06 02:49:30;;;;;;;;;9.25;7.50;;;;;12.18;60.35;101038.22;4944037;28;45404;-62
2022/11/06 02:52:02;;;;;;;;;6.75;4.25;;;;;12.18;60.11;101022.44;4944080;28;45373;-60
2022/11/06 02:54:33;;;;;;;;;6.00;6.00;;;;;12.24;60.23;101030.22;4943996;28;45550;-61
2022/11/06 02:57:04;;;;;;;;;5.50;5.50;;;;;12.19;60.26;101024.16;4943249;28;45303;-61
2022/11/06 02:59:40;;;;;;;;;7.00;5.00;;;;;12.23;60.30;101025.84;4942519;28;45293;-61
2022/11/06 03:02:10;;;;;;;;;8.50;5.50;;;;;12.22;60.17;101026.75;4943599;28;45383;-61
2022/11/06 03:04:38;;;;;;;;;8.50;5.25;;;;;12.19;60.21;101026.81;4943779;28;45510;-61
2022/11/06 03:07:24;;;;;;;;;5.00;5.00;;;;;12.19;60.27;101046.09;4943656;28;46206;-61
2022/11/06 03:09:50;;;;;;;;;5.75;5.00;;;;;12.20;60.19;101044.34;4943603;28;45381;-61
2022/11/06 03:12:42;;;;;;;;;6.25;6.25;;;;;12.18;60.00;101027.69;4943889;28;45455;-61
2022/11/06 03:15:55;;;;;;;;;3.50;3.50;;;;;12.18;60.28;101027.69;4943645;28;45351;-61
2022/11/06 03:18:26;;;;;;;;;5.00;5.00;;;;;12.13;59.81;101035.66;4884260;29;46088;-61
2022/11/06 03:21:06;;;;;;;;;6.00;5.50;;;;;12.11;59.90;101033.94;4888050;29;45328;-61
2022/11/06 03:23:44;;;;;;;;;5.00;4.50;;;;;12.07;60.33;101017.31;4920067;28;45439;-61
2022/11/06 03:26:16;;;;;;;;;6.00;5.25;;;;;12.08;60.13;101013.78;4943259;28;45345;-61
2022/11/06 03:28:47;;;;;;;;;6.00;6.00;;;;;12.08;60.33;101016.44;4942497;28;45245;-61
2022/11/06 03:31:16;;;;;;;;;7.00;5.75;;;;;12.07;60.31;101011.19;4943041;28;45262;-61
2022/11/06 03:33:49;;;;;;;;;5.50;5.00;;;;;12.02;60.40;101008.63;4943765;28;45240;-61
2022/11/06 03:36:52;;;;;;;;;8.25;7.75;;;;;12.03;60.30;101010.38;4943545;28;45285;-61
2022/11/06 03:39:26;;;;;;;;;6.25;5.25;;;;;12.02;60.28;101012.16;4938472;28;45696;-61
2022/11/06 03:42:02;;;;;;;;;3.00;2.75;;;;;12.00;60.21;101000.75;4943195;28;45176;-61
2022/11/06 03:44:32;;;;;;;;;4.00;4.00;;;;;12.00;60.18;100992.00;4943435;28;45250;-61
2022/11/06 03:47:12;;;;;;;;;8.00;6.00;;;;;11.99;60.33;100984.97;4942813;28;45342;-61
2022/11/06 03:49:48;;;;;;;;;8.25;5.00;;;;;11.99;60.24;100999.00;4943066;28;46215;-61
2022/11/06 03:52:21;;;;;;;;;5.00;5.00;;;;;11.97;60.30;100994.66;4943286;28;45267;-61
2022/11/06 03:55:18;;;;;;;;;6.00;5.00;;;;;11.95;60.09;101002.56;4943329;28;45311;-61
2022/11/06 03:57:49;;;;;;;;;7.00;5.75;;;;;11.92;60.30;101007.84;4942387;28;45237;-61
2022/11/06 04:00:16;;;;;;;;;6.00;4.50;;;;;11.93;60.31;101006.97;4942770;28;45410;-61
2022/11/06 04:02:48;;;;;;;;;4.75;3.50;;;;;11.90;60.49;100988.59;4942864;28;45334;-61
2022/11/06 04:05:21;;;;;;;;;7.75;5.00;;;;;11.88;60.37;100971.94;4942964;28;45275;-61
2022/11/06 04:16:12;;;;;;;;;5.75;5.00;;;;;11.81;60.35;100951.84;4942564;28;45413;-61
2022/11/06 04:18:38;;;;;;;;;7.50;6.25;;;;;11.82;60.32;100950.97;4942626;28;45625;-61
2022/11/06 04:21:29;;;;;;;;;7.00;7.00;;;;;11.79;60.32;100940.50;4942576;28;45657;-61
2022/11/06 04:26:57;;;;;;;;;8.25;7.75;;;;;11.79;59.98;100932.59;4942601;28;45315;-61
2022/11/06 04:29:40;;;;;;;;;6.25;5.00;;;;;11.78;60.34;100938.75;4942394;28;45227;-61
2022/11/06 04:32:16;;;;;;;;;5.00;4.50;;;;;11.78;60.26;100950.16;4942450;28;46641;-61
2022/11/06 04:34:48;;;;;;;;;10.25;7.00;;;;;11.79;60.17;100944.00;4942688;28;45408;-61
2022/11/06 04:37:21;;;;;;;;;6.00;4.50;;;;;11.78;60.20;100951.91;4942538;28;45351;-61
2022/11/06 04:40:07;;;;;;;;;9.00;7.00;;;;;11.75;60.05;100947.56;4942272;28;45397;-61
2022/11/06 04:43:04;;;;;;;;;7.25;6.25;;;;;11.74;60.40;100937.94;4942065;28;45495;-61
2022/11/06 04:45:38;;;;;;;;;6.25;5.50;;;;;11.68;60.37;100941.53;4937642;28;45268;-61
2022/11/06 04:48:05;;;;;;;;;7.25;6.75;;;;;11.65;60.28;100936.31;4942361;28;45310;-61
2022/11/06 04:50:37;;;;;;;;;5.00;4.25;;;;;11.69;60.24;100947.66;4941992;28;45511;-61
2022/11/06 04:53:04;;;;;;;;;5.00;5.00;;;;;11.66;60.22;100938.06;4942208;28;46907;-61
2022/11/06 04:55:30;;;;;;;;;6.00;5.25;;;;;11.65;60.33;100943.34;4941823;28;45477;-61
2022/11/06 04:57:55;;;;;;;;;8.00;6.25;;;;;11.64;60.21;100939.84;4940895;28;45327;-61
2022/11/06 05:00:21;;;;;;;;;6.75;5.75;;;;;11.62;60.28;100932.84;4942013;28;45524;-62
2022/11/06 05:02:46;;;;;;;;;6.00;5.00;;;;;11.60;60.19;100929.41;4941841;28;45449;-61
2022/11/06 05:05:11;;;;;;;;;7.25;6.75;;;;;11.63;60.26;100927.56;4940403;28;52779;-61
2022/11/06 05:07:37;;;;;;;;;6.50;5.25;;;;;11.62;60.07;100917.06;4942279;28;45236;-61
2022/11/06 05:10:03;;;;;;;;;5.00;5.00;;;;;11.59;60.22;100914.50;4941956;28;45244;-61
2022/11/06 05:12:28;;;;;;;;;4.75;4.75;;;;;11.57;60.06;100903.97;4941834;28;45543;-61
2022/11/06 05:14:54;;;;;;;;;6.25;4.50;;;;;11.57;60.17;100913.63;4941942;28;45393;-61
2022/11/06 05:17:19;;;;;;;;;5.50;4.25;;;;;11.58;60.31;100916.22;4941253;28;47941;-61
2022/11/06 05:19:44;;;;;;;;;3.00;2.00;;;;;11.57;60.20;100909.22;4941647;28;47364;-61
2022/11/06 05:24:53;;;;;;;;;7.00;5.75;;;;;11.55;60.13;100901.34;4940825;28;45256;-61
2022/11/06 05:27:18;;;;;;;;;5.00;5.00;;;;;11.54;60.17;100907.50;4941649;28;45530;-61
2022/11/06 05:29:44;;;;;;;;;4.00;4.00;;;;;11.53;60.03;100899.66;4941988;28;45231;-62
2022/11/06 05:32:09;;;;;;;;;5.50;4.25;;;;;11.55;60.09;100892.59;4941364;28;46168;-61
2022/11/06 05:34:35;;;;;;;;;7.50;5.75;;;;;11.52;60.31;100898.78;4941916;28;45357;-61
2022/11/06 05:37:00;;;;;;;;;9.25;6.00;;;;;11.51;60.05;100885.66;4941433;28;50386;-61
2022/11/06 05:39:25;;;;;;;;;6.75;5.75;;;;;11.51;60.19;100878.63;4941659;28;45195;-61
2022/11/06 05:41:51;;;;;;;;;7.50;5.50;;;;;11.50;60.17;100865.50;4940422;28;46521;-61
2022/11/06 05:44:16;;;;;;;;;6.50;4.50;;;;;11.48;60.08;100862.00;4941590;28;45231;-61
2022/11/06 05:46:41;;;;;;;;;5.75;5.25;;;;;11.47;60.17;100863.78;4941516;28;45333;-61
2022/11/06 05:49:08;;;;;;;;;6.50;6.50;;;;;11.42;60.42;100859.47;4941486;28;45556;-61
2022/11/06 05:51:34;;;;;;;;;5.00;4.00;;;;;11.37;60.29;100867.44;4943318;28;45361;-61
2022/11/06 05:54:00;;;;;;;;;5.50;4.00;;;;;11.39;59.88;100863.03;4944760;28;45396;-61
2022/11/06 05:56:25;;;;;;;;;3.75;3.75;;;;;11.41;60.17;100870.88;4943456;28;45476;-61
2022/11/06 05:58:50;;;;;;;;;7.50;5.00;;;;;11.36;60.17;100858.69;4944778;28;45413;-61
2022/11/06 06:01:16;;;;;;;;;7.50;4.75;;;;;11.37;60.11;100859.53;4944540;28;45299;-61
2022/11/06 06:03:41;;;;;;;;;5.00;5.00;;;;;11.36;60.11;100853.41;4944784;28;45304;-61
2022/11/06 06:06:06;;;;;;;;;6.00;4.75;;;;;11.37;60.11;100864.78;4944967;28;45507;-61
2022/11/06 06:08:32;;;;;;;;;6.75;6.00;;;;;11.27;60.18;100843.06;4944801;28;45353;-61
2022/11/06 06:10:57;;;;;;;;;6.25;5.75;;;;;11.36;60.09;100866.56;4944572;28;46437;-61
2022/11/06 06:13:22;;;;;;;;;5.50;3.50;;;;;11.34;60.25;100876.25;4944647;28;45266;-61
2022/11/06 06:15:47;;;;;;;;;5.25;4.75;;;;;11.34;60.04;100878.00;4944163;28;48016;-61
2022/11/06 06:18:13;;;;;;;;;6.50;4.75;;;;;11.34;60.04;100867.50;4944530;28;45555;-61
2022/11/06 06:20:38;;;;;;;;;5.00;4.00;;;;;11.31;60.10;100871.03;4944403;28;46149;-61
2022/11/06 06:23:04;;;;;;;;;5.25;5.25;;;;;11.30;60.37;100861.41;4944369;28;45190;-61
2022/11/06 06:25:30;;;;;;;;;4.75;4.75;;;;;11.28;60.17;100847.44;4944594;28;45251;-61
2022/11/06 06:27:56;;;;;;;;;4.00;4.00;;;;;11.30;60.17;100840.34;4944278;28;45308;-61
2022/11/06 06:30:22;;;;;;;;;5.00;4.75;;;;;11.29;59.98;100857.03;4944439;28;45425;-61
2022/11/06 06:32:48;;;;;;;;;5.00;5.00;;;;;11.27;60.12;100856.19;4943955;28;45362;-61
2022/11/06 06:35:14;;;;;;;;;5.00;5.00;;;;;11.27;60.12;100845.69;4944485;28;45389;-61
2022/11/06 06:37:39;;;;;;;;;4.50;4.50;;;;;11.26;60.05;100836.03;4944091;28;45306;-61
2022/11/06 06:40:05;;;;;;;;;6.50;5.50;;;;;11.26;60.18;100812.38;4944213;28;46126;-61
2022/11/06 06:42:31;;;;;;;;;7.00;5.50;;;;;11.26;60.19;100806.22;4943946;28;45307;-61
2022/11/06 06:44:57;;;;;;;;;4.00;4.00;;;;;11.22;60.14;100816.81;4944279;28;45239;-61
2022/11/06 06:47:22;;;;;;;;;5.25;4.25;;;;;11.20;60.07;100820.34;4943796;28;45259;-61
2022/11/06 06:49:48;;;;;;;;;7.25;4.75;;;;;11.20;60.17;100807.19;4943955;28;45468;-61
2022/11/06 06:52:13;;;;;;;;;5.75;3.00;;;;;11.17;60.38;100804.59;4943838;28;46310;-61
2022/11/06 06:54:39;;;;;;;;;3.00;3.00;;;;;11.17;60.14;100804.59;4944210;28;45306;-61
2022/11/06 06:57:06;;;;;;;;;6.50;4.00;;;;;11.17;60.20;100808.13;4943592;28;45910;-62
2022/11/06 06:59:32;;;;;;;;;3.50;3.50;;;;;11.15;60.25;100806.41;4944132;28;45468;-62
2022/11/06 07:01:57;;;;;;;;;5.00;4.00;;;;;11.13;60.16;100784.50;4942552;28;45290;-61
2022/11/06 07:04:23;;;;;;;;;6.00;5.25;;;;;11.15;60.20;100788.00;4943481;28;45347;-61
2022/11/06 07:06:48;;;;;;;;;6.50;4.75;;;;;11.15;60.24;100785.38;4942258;28;45311;-61
2022/11/06 07:09:14;;;;;;;;;4.00;4.00;;;;;11.12;60.43;100775.75;4943720;28;45957;-61
2022/11/06 07:11:39;;;;;;;;;7.50;4.75;;;;;11.12;60.20;100764.34;4943571;28;45387;-61
2022/11/06 07:14:05;;;;;;;;;7.25;5.75;;;;;11.14;60.17;100762.59;4943891;28;45259;-61
2022/11/06 07:16:31;;;;;;;;;5.50;5.50;;;;;11.14;60.25;100778.38;4943142;28;45330;-60
2022/11/06 07:18:57;;;;;;;;;6.00;4.00;;;;;11.12;60.17;100791.53;4942156;28;46463;-61
2022/11/06 07:21:22;;;;;;;;;6.00;4.25;;;;;11.14;60.13;100804.66;4943296;28;45259;-61
2022/11/06 07:23:47;;;;;;;;;5.25;5.25;;;;;11.14;60.19;100794.16;4943680;28;45176;-61
2022/11/06 07:26:13;;;;;;;;;5.50;4.75;;;;;11.14;60.10;100783.63;4943206;28;47035;-61
2022/11/06 07:28:38;;;;;;;;;4.75;4.00;;;;;11.15;60.59;100766.97;4943500;28;45832;-61
2022/11/06 07:31:06;;;;;;;;;4.50;3.00;;;;;11.12;60.04;100767.88;4943118;28;45195;-61
2022/11/06 07:33:32;;;;;;;;;8.75;5.25;;;;;11.11;60.12;100775.78;4943777;28;45167;-60
2022/11/06 07:36:03;;;;;;;;;4.75;3.75;;;;;11.11;60.41;100774.03;4943133;28;45503;-60
2022/11/06 07:38:28;;;;;;;;;6.00;4.00;;;;;11.12;60.06;100770.50;4943157;28;45256;-61
2022/11/06 07:40:53;;;;;;;;;4.75;3.00;;;;;11.14;60.18;100770.47;4943148;28;45221;-61
2022/11/06 07:43:19;;;;;;;;;5.00;4.00;;;;;11.15;60.13;100759.06;4943678;28;45245;-61
2022/11/06 07:45:44;;;;;;;;;8.50;7.75;;;;;11.18;60.07;100757.25;4943138;28;45232;-61
2022/11/06 07:48:09;;;;;;;;;8.25;7.50;;;;;11.15;60.06;100754.66;4943140;28;47809;-61
2022/11/06 07:50:35;;;;;;;;;9.00;5.50;;;;;11.14;60.24;100746.81;4943074;28;45302;-61
2022/11/06 07:53:02;;;;;;;;;5.00;4.00;;;;;11.19;60.00;100748.47;4943393;28;45156;-61
2022/11/06 07:55:27;;;;;;;;;5.25;5.00;;;;;11.22;59.72;100750.19;4942720;28;45568;-61
2022/11/06 07:57:52;;;;;;;;;3.00;3.00;;;;;11.25;59.92;100759.78;4942696;28;53127;-62
2022/11/06 08:00:17;;;;;;;;;5.00;5.00;;;;;11.25;59.96;100765.91;4942788;28;46722;-61
2022/11/06 08:02:43;;;;;;;;;7.00;5.00;;;;;11.24;60.03;100753.63;4943250;28;45226;-61
2022/11/06 08:05:08;;;;;;;;;4.75;3.50;;;;;11.26;60.00;100767.66;4942883;28;45452;-61
2022/11/06 08:07:34;;;;;;;;;8.50;6.00;;;;;11.25;60.04;100768.53;4942968;28;45274;-62
2022/11/06 08:09:59;;;;;;;;;9.25;4.50;;;;;11.28;60.03;100752.72;4942782;28;45557;-61
2022/11/06 08:12:24;;;;;;;;;5.25;5.00;;;;;11.27;60.02;100753.59;4942981;28;45596;-61
2022/11/06 08:14:50;;;;;;;;;6.75;5.00;;;;;11.29;60.02;100756.19;4942355;28;48032;-61
2022/11/06 08:17:15;;;;;;;;;6.00;6.00;;;;;11.29;60.04;100753.56;4940973;28;48188;-61
2022/11/06 08:19:40;;;;;;;;;8.00;7.00;;;;;11.28;60.07;100755.34;4942258;28;51213;-61
2022/11/06 08:22:07;;;;;;;;;7.00;4.25;;;;;11.29;59.96;100745.69;4942675;28;45455;-61
2022/11/06 08:24:33;;;;;;;;;8.25;6.75;;;;;11.32;59.92;100746.50;4942833;28;45264;-61
2022/11/06 08:26:59;;;;;;;;;6.25;5.50;;;;;11.35;60.00;100740.31;4942292;28;46190;-61
2022/11/06 08:29:24;;;;;;;;;7.00;6.00;;;;;11.36;59.56;100735.03;4942770;28;45405;-61
2022/11/06 08:31:49;;;;;;;;;7.00;5.50;;;;;11.37;59.97;100736.75;4942498;28;45489;-61
2022/11/06 08:34:15;;;;;;;;;5.50;4.00;;;;;11.36;60.14;100726.28;4942535;28;45201;-62
2022/11/06 08:36:48;;;;;;;;;5.00;5.00;;;;;11.41;59.79;100727.06;4942255;28;47475;-62
2022/11/06 08:39:14;;;;;;;;;6.00;5.50;;;;;11.40;59.71;100727.09;4942520;28;45314;-62
2022/11/06 08:41:39;;;;;;;;;5.00;5.00;;;;;11.41;59.86;100715.63;4942463;28;45327;-62
2022/11/06 08:44:05;;;;;;;;;5.75;5.00;;;;;11.39;59.79;100713.03;4942333;28;45272;-62
2022/11/06 08:46:31;;;;;;;;;4.00;4.00;;;;;11.44;59.94;100715.59;4942102;28;45234;-62
2022/11/06 08:48:56;;;;;;;;;5.50;3.75;;;;;11.43;59.85;100716.50;4941987;28;45180;-63
2022/11/06 08:51:22;;;;;;;;;4.50;4.50;;;;;11.45;59.97;100727.88;4941062;28;49920;-62
2022/11/06 08:53:47;;;;;;;;;6.50;6.50;;;;;11.48;59.91;100727.81;4942107;28;45361;-62
2022/11/06 08:56:13;;;;;;;;;6.00;4.25;;;;;11.45;60.01;100726.09;4941895;28;46289;-62
2022/11/06 08:58:38;;;;;;;;;5.00;5.00;;;;;11.46;60.12;100730.47;4941954;28;45512;-62
2022/11/06 09:01:04;;;;;;;;;5.25;5.25;;;;;11.47;60.12;100731.31;4942223;28;45323;-62
2022/11/06 09:03:29;;;;;;;;;5.00;3.75;;;;;11.48;60.09;100731.31;4942011;28;45321;-62
2022/11/06 09:05:54;;;;;;;;;6.75;5.00;;;;;11.50;60.05;100732.13;4942103;28;45299;-62
2022/11/06 09:08:20;;;;;;;;;3.75;3.75;;;;;11.52;59.99;100729.47;4942105;28;45263;-62
2022/11/06 09:10:45;;;;;;;;;4.00;4.00;;;;;11.53;59.90;100720.69;4942068;28;45485;-63
2022/11/06 09:13:12;;;;;;;;;6.25;5.50;;;;;11.51;59.65;100727.75;4941912;28;45340;-62
2022/11/06 09:15:38;;;;;;;;;4.00;4.00;;;;;11.54;60.08;100727.69;4941404;28;46150;-62
2022/11/06 09:18:04;;;;;;;;;5.25;5.25;;;;;11.56;59.99;100723.28;4940720;28;45466;-62
2022/11/06 09:20:29;;;;;;;;;7.25;5.75;;;;;11.51;60.00;100714.59;4941891;28;45215;-62
2022/11/06 09:23:01;;;;;;;;;8.00;5.50;;;;;11.57;60.14;100711.81;4941707;28;45524;-63
2022/11/06 09:25:26;;;;;;;;;8.00;7.00;;;;;11.57;60.03;100698.66;4940791;28;46130;-62
2022/11/06 09:27:52;;;;;;;;;8.00;6.00;;;;;11.58;60.14;100682.00;4941541;28;45418;-62
2022/11/06 09:30:20;;;;;;;;;7.50;6.50;;;;;11.59;60.24;100674.97;4941633;28;45176;-62
2022/11/06 09:32:55;;;;;;;;;8.50;4.50;;;;;11.56;60.06;100657.47;4940212;28;45545;-62
2022/11/06 09:35:22;;;;;;;;;10.25;6.00;;;;;11.58;60.10;100660.94;4941565;28;45303;-62
2022/11/06 09:37:48;;;;;;;;;7.25;5.75;;;;;11.61;60.07;100646.84;4941439;28;45445;-62
2022/11/06 09:40:38;;;;;;;;;6.25;6.25;;;;;11.61;60.07;100645.09;4941719;28;45396;-62
2022/11/06 09:43:31;;;;;;;;;5.00;5.00;;;;;11.62;59.97;100643.31;4941642;28;45240;-62
2022/11/06 09:46:12;;;;;;;;;5.00;5.00;;;;;11.58;60.23;100626.72;4941446;28;46256;-62
2022/11/06 09:48:42;;;;;;;;;7.75;5.00;;;;;11.61;59.91;100626.69;4941089;28;45480;-63
2022/11/06 09:51:13;;;;;;;;;4.00;4.00;;;;;11.64;60.16;100629.22;4941638;28;45220;-62
2022/11/06 09:53:51;;;;;;;;;5.25;5.25;;;;;11.64;60.13;100631.84;4941397;28;45460;-63
2022/11/06 09:56:20;;;;;;;;;13.00;12.00;;;;;11.64;60.08;100629.22;4941180;28;45406;-62
2022/11/06 09:58:48;;;;;;;;;10.00;8.50;;;;;11.62;60.04;100628.41;4939956;28;45223;-62
2022/11/06 10:01:23;;;;;;;;;7.00;6.50;;;;;11.62;60.06;100630.16;4941414;28;45315;-62
2022/11/06 10:03:56;;;;;;;;;12.25;10.00;;;;;11.68;60.12;100630.03;4940099;28;45281;-62
2022/11/06 10:06:23;;;;;;;;;10.00;9.00;;;;;11.67;60.19;100617.78;4941145;28;46628;-62
2022/11/06 10:08:50;;;;;;;;;9.00;7.75;;;;;11.68;60.18;100612.50;4941192;28;45267;-62
2022/11/06 10:11:16;;;;;;;;;7.75;6.00;;;;;11.67;60.60;100610.75;4941234;28;45459;-62
2022/11/06 10:13:56;;;;;;;;;8.00;8.00;;;;;11.68;60.09;100604.59;4941283;28;45362;-62
2022/11/06 10:16:46;;;;;;;;;6.75;6.75;;;;;11.67;60.12;100609.88;4940692;28;45274;-62
2022/11/06 10:19:32;;;;;;;;;10.50;9.50;;;;;11.70;60.18;100610.69;4940967;28;45323;-63
2022/11/06 10:22:12;;;;;;;;;6.75;6.50;;;;;11.69;60.24;100600.19;4941360;28;45176;-63
2022/11/06 10:24:52;;;;;;;;;6.50;4.50;;;;;11.69;60.25;100603.69;4940952;28;45335;-63
2022/11/06 10:27:47;;;;;;;;;6.00;6.00;;;;;11.63;60.29;100614.31;4940807;28;46550;-63
2022/11/06 10:30:16;;;;;;;;;10.00;8.00;;;;;11.65;60.26;100616.94;4940740;28;45255;-63
2022/11/06 10:33:08;;;;;;;;;6.50;6.50;;;;;11.64;60.54;100609.94;4940873;28;45227;-62
2022/11/06 10:36:06;;;;;;;;;8.75;7.00;;;;;11.62;60.41;100612.63;4940897;28;45417;-62
2022/11/06 10:38:42;;;;;;;;;10.00;8.00;;;;;11.63;60.39;100611.69;4924879;28;46461;-62
2022/11/06 10:41:18;;;;;;;;;7.50;7.50;;;;;11.65;60.31;100622.22;4944487;28;45432;-63
2022/11/06 10:43:53;;;;;;;;;6.50;6.50;;;;;11.67;60.33;100626.56;4943150;28;45484;-63
2022/11/06 10:46:42;;;;;;;;;8.50;8.50;;;;;11.64;60.36;100642.38;4943838;28;45399;-63
2022/11/06 10:49:15;;;;;;;;;6.00;5.00;;;;;11.41;60.33;100590.22;4943991;28;46252;-62
2022/11/06 10:52:03;;;;;;;;;8.75;8.00;;;;;11.67;60.22;100616.03;4942171;28;45287;-62
2022/11/06 10:54:53;;;;;;;;;9.00;8.50;;;;;11.67;60.41;100633.56;4944122;28;45422;-62
2022/11/06 10:57:39;;;;;;;;;12.00;12.00;;;;;11.61;60.55;100626.69;4943679;28;45615;-62
2022/11/06 11:00:10;;;;;;;;;11.25;10.25;;;;;11.60;60.29;100624.94;4943796;28;45549;-62
2022/11/06 11:02:42;;;;;;;;;9.25;9.00;;;;;11.60;60.55;100619.66;4943902;28;45210;-63
2022/11/06 11:05:15;;;;;;;;;11.75;10.00;;;;;11.58;60.61;100586.38;4943899;28;45235;-62
2022/11/06 11:07:43;;;;;;;;;12.50;11.75;;;;;11.62;60.54;100574.88;4943787;28;45246;-62
2022/11/06 11:10:35;;;;;;;;;9.00;9.00;;;;;11.61;60.58;100570.50;4943516;28;45298;-62
2022/11/06 11:13:04;;;;;;;;;13.75;11.25;;;;;11.62;60.56;100573.13;4942361;28;45337;-62
2022/11/06 11:15:44;;;;;;;;;18.50;14.00;;;;;11.61;60.50;100570.50;4943536;28;45252;-62
2022/11/06 11:18:12;;;;;;;;;11.75;9.50;;;;;11.61;60.44;100576.66;4943536;28;45243;-63
2022/11/06 11:20:49;;;;;;;;;12.50;11.00;;;;;11.62;60.69;100583.66;4943469;28;46311;-60
2022/11/06 11:23:24;;;;;;;;;13.00;12.50;;;;;11.62;60.52;100585.41;4943428;28;45272;-62
2022/11/06 11:25:53;;;;;;;;;8.00;8.00;;;;;11.57;60.55;100567.06;4943546;28;45235;-62
2022/11/06 11:28:26;;;;;;;;;13.50;9.75;;;;;11.58;60.59;100578.50;4943472;28;45460;-62
2022/11/06 11:31:04;;;;;;;;;12.25;10.25;;;;;11.60;60.79;100587.22;4943112;28;46390;-62
2022/11/06 11:33:30;;;;;;;;;13.25;11.75;;;;;11.58;60.76;100571.44;4943163;28;45317;-62
2022/11/06 11:35:55;;;;;;;;;13.75;12.00;;;;;11.58;60.77;100566.19;4943271;28;45329;-63
2022/11/06 11:38:21;;;;;;;;;10.25;10.25;;;;;11.58;60.70;100563.56;4943336;28;45307;-61
2022/11/06 11:40:47;;;;;;;;;12.25;11.25;;;;;11.56;60.55;100549.59;4943076;28;47351;-61
2022/11/06 11:43:23;;;;;;;;;9.50;9.00;;;;;11.55;60.92;100547.84;4943244;28;45255;-63
2022/11/06 11:46:08;;;;;;;;;14.75;11.75;;;;;11.53;60.99;100553.16;4942995;28;45346;-61
2022/11/06 11:48:45;;;;;;;;;16.25;13.25;;;;;11.52;60.88;100543.50;4942253;28;45476;-61
2022/11/06 11:51:24;;;;;;;;;11.75;11.00;;;;;11.52;61.20;100540.00;4943116;28;45336;-62
2022/11/06 11:53:51;;;;;;;;;11.00;9.00;;;;;11.48;61.12;100531.31;4942997;28;45417;-62
2022/11/06 11:56:19;;;;;;;;;11.75;9.50;;;;;11.50;61.10;100516.34;4942939;28;45290;-61